createdAt,value
2023-01-11T00:00:59.401Z,7.35
2023-01-11T00:03:53.257Z,7.38
2023-01-11T00:06:41.325Z,7.39
2023-01-11T00:09:12.101Z,7.36
2023-01-11T00:11:42.714Z,7.36
2023-01-11T00:14:17.729Z,7.37
2023-01-11T00:16:48.286Z,7.38
2023-01-11T00:19:18.715Z,7.39
2023-01-11T00:21:51.807Z,7.41
2023-01-11T00:24:32.028Z,7.41
2023-01-11T00:27:04.995Z,7.42
2023-01-11T00:29:38.170Z,7.39
2023-01-11T00:32:08.939Z,7.39
2023-01-11T00:34:39.435Z,7.39
2023-01-11T00:37:13.685Z,7.36
2023-01-11T00:39:47.803Z,7.44
2023-01-11T00:42:30.758Z,7.48
2023-01-11T00:45:16.896Z,7.46
2023-01-11T00:48:05.022Z,7.48
2023-01-11T00:50:38.879Z,7.51
2023-01-11T00:53:11.845Z,7.53
2023-01-11T00:55:42.845Z,7.56
2023-01-11T00:58:13.585Z,7.60
2023-01-11T01:00:46.716Z,7.58
2023-01-11T01:03:17.134Z,7.59
2023-01-11T01:05:47.754Z,7.49
2023-01-11T01:08:18.235Z,7.55
2023-01-11T01:10:48.672Z,7.48
2023-01-11T01:13:31.471Z,7.59
2023-01-11T01:16:04.584Z,7.58
2023-01-11T01:18:37.660Z,7.56
2023-01-11T01:21:08.229Z,7.57
2023-01-11T01:23:38.691Z,7.62
2023-01-11T01:26:10.066Z,7.62
2023-01-11T01:28:40.634Z,7.58
2023-01-11T01:31:17.075Z,7.60
2023-01-11T01:33:47.523Z,7.61
2023-01-11T01:36:19.776Z,7.62
2023-01-11T01:38:50.203Z,7.57
2023-01-11T01:41:20.782Z,7.58
2023-01-11T01:43:54.489Z,7.57
2023-01-11T01:46:30.961Z,7.57
2023-01-11T01:49:04.854Z,7.54
2023-01-11T01:51:41.284Z,7.54
2023-01-11T01:54:15.359Z,7.52
2023-01-11T01:56:53.256Z,7.49
2023-01-11T01:59:28.984Z,7.48
2023-01-11T02:02:03.774Z,7.29
2023-01-11T02:04:37.278Z,7.43
2023-01-11T02:07:19.384Z,7.44
2023-01-11T02:09:55.713Z,7.43
2023-01-11T02:12:30.188Z,7.43
2023-01-11T02:15:03.005Z,7.44
2023-01-11T02:17:36.284Z,7.40
2023-01-11T02:20:43.216Z,7.45
2023-01-11T02:23:52.063Z,7.46
2023-01-11T02:26:52.506Z,7.46
2023-01-11T02:29:33.953Z,7.49
2023-01-11T02:32:14.767Z,7.49
2023-01-11T02:34:53.333Z,7.48
2023-01-11T02:37:31.867Z,7.48
2023-01-11T02:40:10.339Z,7.48
2023-01-11T02:42:54.847Z,7.29
2023-01-11T02:45:40.170Z,7.49
2023-01-11T02:48:19.225Z,7.52
2023-01-11T02:51:01.187Z,7.51
2023-01-11T02:53:38.880Z,7.57
2023-01-11T02:56:13.580Z,7.64
2023-01-11T02:58:48.684Z,7.64
2023-01-11T03:01:23.588Z,7.67
2023-01-11T03:03:58.964Z,7.68
2023-01-11T03:06:33.749Z,7.69
2023-01-11T03:09:29.394Z,7.74
2023-01-11T03:12:27.639Z,7.75
2023-01-11T03:15:16.476Z,7.80
2023-01-11T03:18:03.022Z,7.73
2023-01-11T03:20:36.100Z,7.81
2023-01-11T03:23:15.504Z,7.82
2023-01-11T03:25:54.907Z,7.82
2023-01-11T03:28:35.332Z,7.83
2023-01-11T03:31:14.975Z,7.85
2023-01-11T03:33:57.169Z,7.90
2023-01-11T03:36:34.967Z,7.91
2023-01-11T03:39:19.397Z,7.89
2023-01-11T03:41:52.956Z,7.92
2023-01-11T03:44:26.301Z,7.89
2023-01-11T03:47:01.495Z,7.91
2023-01-11T03:49:38.591Z,7.81
2023-01-11T03:52:16.123Z,7.94
2023-01-11T03:54:47.259Z,7.98
2023-01-11T03:57:25.068Z,8.04
2023-01-11T03:59:56.256Z,8.06
2023-01-11T04:02:29.406Z,8.07
2023-01-11T04:05:02.660Z,8.09
2023-01-11T04:07:33.307Z,8.07
2023-01-11T04:10:03.955Z,8.05
2023-01-11T04:12:34.441Z,8.10
2023-01-11T04:15:05.396Z,8.13
2023-01-11T04:17:35.902Z,8.12
2023-01-11T04:20:16.644Z,8.16
2023-01-11T04:22:47.120Z,8.14
2023-01-11T04:25:17.669Z,8.17
2023-01-11T04:27:48.013Z,8.16
2023-01-11T04:30:18.845Z,8.20
2023-01-11T04:32:49.366Z,8.22
2023-01-11T04:35:22.664Z,8.22
2023-01-11T04:37:56.494Z,8.23
2023-01-11T04:40:29.312Z,8.22
2023-01-11T04:42:57.345Z,8.20
2023-01-11T04:45:27.852Z,8.25
2023-01-11T04:48:00.813Z,8.26
2023-01-11T04:50:34.026Z,8.29
2023-01-11T04:53:04.454Z,8.29
2023-01-11T04:55:35.029Z,8.25
2023-01-11T04:58:06.996Z,8.27
2023-01-11T05:00:41.407Z,8.30
2023-01-11T05:03:32.978Z,8.32
2023-01-11T05:06:06.640Z,8.31
2023-01-11T05:08:37.410Z,8.34
2023-01-11T05:11:09.874Z,8.35
2023-01-11T05:13:46.650Z,8.23
2023-01-11T05:16:20.546Z,8.40
2023-01-11T05:18:53.363Z,8.39
2023-01-11T05:21:28.376Z,8.38
2023-01-11T05:23:58.838Z,8.34
2023-01-11T05:26:40.686Z,8.36
2023-01-11T05:29:14.081Z,8.37
2023-01-11T05:31:45.178Z,8.34
2023-01-11T05:34:17.515Z,8.33
2023-01-11T05:36:53.225Z,8.31
2023-01-11T05:39:24.209Z,8.28
2023-01-11T05:41:54.697Z,8.30
2023-01-11T05:44:37.882Z,8.32
2023-01-11T05:47:08.455Z,8.31
2023-01-11T05:49:41.196Z,8.32
2023-01-11T05:52:14.261Z,8.36
2023-01-11T05:54:44.722Z,8.34
2023-01-11T05:57:15.151Z,8.35
2023-01-11T05:59:45.656Z,8.37
2023-01-11T06:02:16.241Z,8.37
2023-01-11T06:04:46.918Z,8.35
2023-01-11T06:07:20.223Z,8.38
2023-01-11T06:09:51.006Z,8.42
2023-01-11T06:12:23.728Z,8.42
2023-01-11T06:14:54.310Z,8.41
2023-01-11T06:17:24.792Z,8.42
2023-01-11T06:19:55.437Z,8.42
2023-01-11T06:22:28.599Z,8.41
2023-01-11T06:25:02.975Z,8.32
2023-01-11T06:27:33.440Z,8.32
2023-01-11T06:30:03.894Z,8.34
2023-01-11T06:32:34.474Z,8.34
2023-01-11T06:35:04.946Z,8.36
2023-01-11T06:37:38.027Z,8.33
2023-01-11T06:40:10.053Z,8.34
2023-01-11T06:42:40.652Z,8.35
2023-01-11T06:45:12.811Z,8.36
2023-01-11T06:47:43.525Z,8.37
2023-01-11T06:50:14.533Z,8.39
2023-01-11T06:52:55.778Z,8.30
2023-01-11T06:55:28.036Z,8.38
2023-01-11T06:57:59.375Z,8.36
2023-01-11T07:00:30.108Z,8.40
2023-01-11T07:03:04.871Z,8.42
2023-01-11T07:05:36.777Z,8.45
2023-01-11T07:08:09.898Z,8.46
2023-01-11T07:10:40.401Z,8.48
2023-01-11T07:13:11.168Z,8.46
2023-01-11T07:15:41.749Z,8.42
2023-01-11T07:18:12.862Z,8.45
2023-01-11T07:20:43.432Z,8.47
2023-01-11T07:23:17.063Z,8.50
2023-01-11T07:25:47.599Z,8.52
2023-01-11T07:28:20.156Z,8.53
2023-01-11T07:30:58.796Z,8.49
2023-01-11T07:33:30.919Z,8.41
2023-01-11T07:36:05.424Z,8.51
2023-01-11T07:38:38.631Z,8.35
2023-01-11T07:41:29.468Z,8.53
2023-01-11T07:43:57.659Z,8.52
2023-01-11T07:46:30.132Z,8.51
2023-01-11T07:49:00.646Z,8.57
2023-01-11T07:51:31.115Z,8.31
2023-01-11T07:54:04.242Z,8.59
2023-01-11T07:56:35.090Z,8.56
2023-01-11T07:59:05.649Z,8.51
2023-01-11T08:01:36.163Z,8.60
2023-01-11T08:04:11.999Z,8.59
2023-01-11T08:06:43.512Z,8.60
2023-01-11T08:09:16.772Z,8.65
2023-01-11T08:12:11.858Z,8.66
2023-01-11T08:14:42.171Z,8.66
2023-01-11T08:17:15.209Z,8.66
2023-01-11T08:19:46.460Z,8.66
2023-01-11T08:22:17.583Z,8.65
2023-01-11T08:24:51.243Z,8.73
2023-01-11T08:27:47.039Z,8.65
2023-01-11T08:30:20.885Z,8.79
2023-01-11T08:32:51.613Z,8.81
2023-01-11T08:35:22.112Z,8.83
2023-01-11T08:37:52.712Z,8.85
2023-01-11T08:40:25.977Z,8.90
2023-01-11T08:42:58.491Z,8.95
2023-01-11T08:45:29.161Z,8.89
2023-01-11T08:48:01.965Z,9.05
2023-01-11T08:50:32.559Z,9.11
2023-01-11T08:53:03.126Z,9.12
2023-01-11T08:55:36.675Z,9.15
2023-01-11T08:58:07.181Z,9.10
2023-01-11T09:00:37.712Z,9.20
2023-01-11T09:03:08.599Z,9.21
2023-01-11T09:05:39.508Z,9.23
2023-01-11T09:08:11.446Z,9.25
2023-01-11T09:10:44.586Z,9.28
2023-01-11T09:13:15.069Z,9.21
2023-01-11T09:15:46.811Z,9.27
2023-01-11T09:18:18.144Z,9.15
2023-01-11T09:20:48.655Z,9.42
2023-01-11T09:23:19.265Z,9.44
2023-01-11T09:25:52.482Z,9.50
2023-01-11T09:28:22.934Z,9.55
2023-01-11T09:30:56.226Z,9.60
2023-01-11T09:33:26.728Z,9.48
2023-01-11T09:35:58.896Z,9.64
2023-01-11T09:38:30.741Z,9.65
2023-01-11T09:41:16.842Z,9.63
2023-01-11T09:43:55.053Z,9.70
2023-01-11T09:46:30.462Z,9.68
2023-01-11T09:49:03.562Z,9.69
2023-01-11T09:51:39.656Z,9.71
2023-01-11T09:54:14.512Z,9.76
2023-01-11T09:56:53.905Z,9.85
2023-01-11T09:59:31.149Z,9.90
2023-01-11T10:02:10.337Z,9.89
2023-01-11T10:05:06.339Z,9.89
2023-01-11T10:18:28.616Z,9.84
2023-01-11T10:18:37.596Z,9.85
2023-01-11T10:20:01.446Z,9.84
2023-01-11T10:22:37.013Z,9.60
2023-01-11T10:25:21.862Z,9.84
2023-01-11T10:27:59.061Z,9.85
2023-01-11T10:30:49.670Z,9.86
2023-01-11T10:33:46.410Z,9.89
2023-01-11T10:36:41.732Z,9.87
2023-01-11T10:39:35.875Z,9.89
2023-01-11T10:42:12.841Z,9.90
2023-01-11T10:44:48.814Z,9.80
2023-01-11T10:47:33.996Z,9.96
2023-01-11T10:50:19.303Z,9.98
2023-01-11T10:52:59.097Z,9.96
2023-01-11T10:55:43.313Z,9.99
2023-01-11T10:58:25.121Z,9.98
2023-01-11T11:01:08.670Z,9.93
2023-01-11T11:03:55.949Z,9.94
2023-01-11T11:06:43.424Z,9.95
2023-01-11T11:09:23.932Z,9.93
2023-01-11T11:12:01.170Z,9.86
2023-01-11T11:14:40.456Z,9.82
2023-01-11T11:17:22.783Z,9.87
2023-01-11T11:19:56.186Z,9.88
2023-01-11T11:22:26.885Z,9.91
2023-01-11T11:25:06.742Z,9.93
2023-01-11T11:27:43.456Z,9.94
2023-01-11T11:30:15.132Z,9.94
2023-01-11T11:32:55.693Z,9.93
2023-01-11T11:35:44.078Z,9.92
2023-01-11T11:38:25.819Z,9.84
2023-01-11T11:41:00.996Z,9.87
2023-01-11T11:43:31.623Z,9.86
2023-01-11T11:46:03.800Z,9.83
2023-01-11T11:48:36.267Z,9.84
2023-01-11T11:51:13.294Z,9.85
2023-01-11T11:53:46.201Z,9.86
2023-01-11T11:56:26.163Z,9.85
2023-01-11T11:58:58.846Z,9.81
2023-01-11T12:01:33.253Z,9.79
2023-01-11T12:04:07.253Z,9.76
2023-01-11T12:06:44.205Z,9.73
2023-01-11T12:09:33.721Z,9.69
2023-01-11T12:12:05.612Z,9.67
2023-01-11T12:14:37.473Z,9.67
2023-01-11T12:17:25.683Z,9.64
2023-01-11T12:19:56.199Z,9.68
2023-01-11T12:22:30.872Z,9.68
2023-01-11T12:25:25.764Z,9.73
2023-01-11T12:28:00.339Z,9.76
2023-01-11T12:30:37.472Z,9.77
2023-01-11T12:33:29.704Z,9.82
2023-01-11T12:36:07.251Z,9.85
2023-01-11T12:38:55.609Z,9.88
2023-01-11T12:42:10.195Z,9.90
2023-01-11T12:45:04.574Z,9.93
2023-01-11T12:48:10.294Z,9.96
2023-01-11T12:50:54.706Z,9.98
2023-01-11T12:53:46.420Z,9.69
2023-01-11T12:56:35.016Z,9.99
2023-01-11T12:59:22.844Z,9.98
2023-01-11T13:02:01.918Z,10.03
2023-01-11T13:04:57.801Z,10.06
2023-01-11T13:07:42.253Z,10.11
2023-01-11T13:10:29.324Z,10.14
2023-01-11T13:13:12.652Z,10.20
2023-01-11T13:15:53.761Z,10.24
2023-01-11T13:18:32.883Z,10.28
2023-01-11T13:21:21.040Z,10.30
2023-01-11T13:23:57.977Z,10.29
2023-01-11T13:26:31.937Z,10.30
2023-01-11T13:29:08.237Z,10.27
2023-01-11T13:31:39.132Z,10.27
2023-01-11T13:34:27.940Z,10.21
2023-01-11T13:37:02.415Z,10.25
2023-01-11T13:39:40.413Z,10.04
2023-01-11T13:42:17.460Z,10.21
2023-01-11T13:44:55.374Z,10.17
2023-01-11T13:47:33.437Z,10.12
2023-01-11T13:50:07.844Z,10.12
2023-01-11T13:52:52.078Z,10.11
2023-01-11T13:55:27.000Z,10.15
2023-01-11T13:58:02.851Z,10.16
2023-01-11T14:00:44.021Z,10.20
2023-01-11T14:03:23.745Z,10.20
2023-01-11T14:06:05.825Z,10.19
2023-01-11T14:09:03.303Z,10.20
2023-01-11T14:11:44.684Z,10.22
2023-01-11T14:14:30.383Z,10.24
2023-01-11T14:17:29.905Z,10.22
2023-01-11T14:20:12.063Z,10.21
2023-01-11T14:22:50.598Z,10.19
2023-01-11T14:25:25.498Z,10.21
2023-01-11T14:28:08.858Z,10.18
2023-01-11T14:31:18.032Z,10.08
2023-01-11T14:34:12.415Z,10.08
2023-01-11T14:37:15.128Z,10.06
2023-01-11T14:40:28.327Z,10.11
2023-01-11T14:43:33.533Z,9.98
2023-01-11T14:46:31.521Z,10.09
2023-01-11T14:49:14.278Z,10.03
2023-01-11T14:51:59.348Z,9.94
2023-01-11T14:54:33.002Z,9.83
2023-01-11T14:57:06.738Z,9.86
2023-01-11T14:59:40.426Z,9.81
2023-01-11T15:02:30.908Z,9.76
2023-01-11T15:05:29.661Z,9.70
2023-01-11T15:08:28.337Z,9.64
2023-01-11T15:11:00.673Z,9.59
2023-01-11T15:13:33.900Z,9.52
2023-01-11T15:16:25.292Z,9.49
2023-01-11T15:18:56.879Z,9.42
2023-01-11T15:21:30.509Z,9.39
2023-01-11T15:24:01.695Z,9.36
2023-01-11T15:26:32.292Z,9.32
2023-01-11T15:29:05.103Z,9.31
2023-01-11T15:31:51.962Z,9.26
2023-01-11T15:34:28.518Z,9.20
2023-01-11T15:37:27.997Z,9.17
2023-01-11T15:40:06.331Z,9.12
2023-01-11T15:42:58.064Z,9.07
2023-01-11T15:46:11.555Z,9.04
2023-01-11T15:48:54.347Z,8.99
2023-01-11T15:51:47.185Z,8.97
2023-01-11T15:54:53.513Z,8.92
2023-01-11T15:57:51.029Z,8.90
2023-01-11T16:00:46.069Z,8.84
2023-01-11T16:04:00.829Z,8.79
2023-01-11T16:06:43.469Z,8.54
2023-01-11T16:09:46.553Z,8.72
2023-01-11T16:12:36.409Z,8.70
2023-01-11T16:15:19.988Z,8.64
2023-01-11T16:17:51.410Z,8.60
2023-01-11T16:20:26.589Z,8.56
2023-01-11T16:23:00.029Z,8.45
2023-01-11T16:25:35.701Z,8.43
2023-01-11T16:28:07.741Z,8.29
2023-01-11T16:30:38.808Z,8.37
2023-01-11T16:33:23.485Z,8.32
2023-01-11T16:36:05.368Z,8.24
2023-01-11T16:38:43.268Z,8.19
2023-01-11T16:41:18.594Z,8.16
2023-01-11T16:43:54.457Z,8.14
2023-01-11T16:47:08.375Z,8.13
2023-01-11T16:49:38.833Z,8.11
2023-01-11T16:52:47.219Z,8.10
2023-01-11T16:55:36.630Z,8.09
2023-01-11T16:58:25.707Z,8.12
2023-01-11T17:01:02.394Z,7.86
2023-01-11T17:03:44.027Z,8.09
2023-01-11T17:06:21.942Z,8.08
2023-01-11T17:08:54.427Z,8.05
2023-01-11T17:11:38.094Z,7.84
2023-01-11T17:14:36.418Z,7.98
2023-01-11T17:17:12.387Z,8.01
2023-01-11T17:19:47.144Z,8.02
2023-01-11T17:22:21.976Z,7.93
2023-01-11T17:24:57.477Z,8.02
2023-01-11T17:27:33.381Z,8.01
2023-01-11T17:30:08.503Z,8.02
2023-01-11T17:32:41.468Z,8.02
2023-01-11T17:35:19.584Z,8.07
2023-01-11T17:37:52.508Z,8.08
2023-01-11T17:40:26.046Z,8.11
2023-01-11T17:43:11.904Z,8.11
2023-01-11T17:45:45.593Z,8.07
2023-01-11T17:48:20.546Z,8.03
2023-01-11T17:50:54.661Z,7.99
2023-01-11T17:53:32.381Z,7.96
2023-01-11T17:56:04.789Z,7.94
2023-01-11T17:58:37.169Z,7.93
2023-01-11T18:01:23.287Z,7.96
2023-01-11T18:03:57.150Z,7.96
2023-01-11T18:06:34.864Z,8.00
2023-01-11T18:09:07.786Z,8.13
2023-01-11T18:11:42.120Z,8.22
2023-01-11T18:14:22.470Z,8.28
2023-01-11T18:17:04.215Z,8.27
2023-01-11T18:19:37.217Z,8.20
2023-01-11T18:22:31.821Z,8.10
2023-01-11T18:25:04.599Z,8.09
2023-01-11T18:27:38.284Z,8.08
2023-01-11T18:30:11.485Z,8.04
2023-01-11T18:32:47.010Z,7.99
2023-01-11T18:35:20.230Z,7.98
2023-01-11T18:37:50.923Z,8.00
2023-01-11T18:40:25.591Z,8.00
2023-01-11T18:42:57.757Z,7.98
2023-01-11T18:45:29.583Z,7.97
2023-01-11T18:48:04.037Z,7.98
2023-01-11T18:50:42.681Z,7.86
2023-01-11T18:53:14.735Z,7.92
2023-01-11T18:55:48.535Z,7.92
2023-01-11T18:58:20.386Z,7.86
2023-01-11T19:01:15.282Z,7.83
2023-01-11T19:03:49.850Z,7.85
2023-01-11T19:06:23.069Z,7.87
2023-01-11T19:08:54.607Z,7.84
2023-01-11T19:14:36.161Z,7.87
2023-01-11T19:17:33.264Z,7.94
2023-01-11T19:20:25.616Z,8.01
2023-01-11T19:23:03.388Z,7.84
2023-01-11T19:25:44.194Z,7.57
2023-01-11T19:28:17.605Z,8.00
2023-01-11T19:30:58.792Z,7.67
2023-01-11T19:33:48.792Z,7.81
2023-01-11T19:36:56.991Z,7.92
2023-01-11T19:39:57.980Z,7.98
2023-01-11T19:42:50.246Z,8.08
2023-01-11T19:45:34.797Z,8.18
2023-01-11T19:48:27.816Z,8.16
2023-01-11T19:51:19.488Z,8.02
2023-01-11T19:54:18.388Z,7.85
2023-01-11T20:00:06.117Z,7.34
2023-01-11T20:02:55.518Z,7.39
2023-01-11T20:05:39.778Z,7.72
2023-01-11T20:12:05.274Z,7.86
2023-01-11T20:15:17.726Z,7.95
2023-01-11T20:18:51.759Z,7.81
2023-01-11T20:21:54.339Z,8.03
2023-01-11T20:24:58.773Z,7.46
2023-01-11T20:27:55.626Z,7.76
2023-01-11T20:30:46.758Z,7.96
2023-01-11T20:33:49.029Z,7.68
2023-01-11T20:36:27.787Z,8.00
2023-01-11T20:39:13.995Z,7.77
2023-01-11T20:42:10.840Z,6.76
2023-01-11T20:45:04.406Z,7.54
2023-01-11T20:47:55.023Z,6.87
2023-01-11T20:50:44.778Z,8.03
2023-01-11T20:53:22.555Z,8.01
2023-01-11T20:56:03.958Z,7.67
2023-01-11T20:58:56.212Z,8.02
2023-01-11T21:01:49.291Z,7.82
2023-01-11T21:04:33.550Z,7.49
2023-01-11T21:07:19.653Z,8.00
2023-01-11T21:10:14.955Z,8.03
2023-01-11T21:15:23.793Z,8.02
2023-01-11T21:18:10.459Z,8.01
2023-01-11T21:20:53.706Z,8.00
2023-01-11T21:23:27.175Z,7.96
2023-01-11T21:25:57.764Z,8.04
2023-01-11T21:28:28.278Z,8.06
2023-01-11T21:31:05.411Z,8.13
2023-01-11T21:33:39.473Z,8.15
2023-01-11T21:36:13.497Z,7.95
2023-01-11T21:38:44.060Z,8.16
2023-01-11T21:41:16.133Z,8.23
2023-01-11T21:43:47.633Z,8.30
2023-01-11T21:46:18.108Z,8.36
2023-01-11T21:48:53.451Z,8.46
2023-01-11T21:51:23.910Z,8.56
2023-01-11T21:53:54.554Z,8.62
2023-01-11T21:56:30.107Z,8.66
2023-01-11T21:59:00.529Z,8.68
2023-01-11T22:01:31.060Z,8.64
2023-01-11T22:04:08.074Z,8.62
2023-01-11T22:06:39.953Z,8.64
2023-01-11T22:09:14.916Z,8.70
2023-01-11T22:11:45.803Z,8.53
2023-01-11T22:14:16.332Z,8.66
2023-01-11T22:16:47.590Z,8.60
2023-01-11T22:19:20.960Z,8.60
2023-01-11T22:21:51.784Z,8.61
2023-01-11T22:24:22.539Z,8.66
2023-01-11T22:26:53.016Z,8.59
2023-01-11T22:29:23.703Z,8.77
2023-01-11T22:32:01.210Z,8.84
2023-01-11T22:34:34.333Z,8.89
2023-01-11T22:37:06.574Z,8.92
2023-01-11T22:39:44.387Z,8.93
2023-01-11T22:42:15.051Z,8.97
2023-01-11T22:44:45.443Z,9.01
2023-01-11T22:47:15.896Z,9.06
2023-01-11T22:49:54.063Z,9.02
2023-01-11T22:52:24.906Z,9.11
2023-01-11T22:54:55.422Z,9.09
2023-01-11T22:57:32.373Z,9.01
2023-01-11T23:00:04.685Z,9.11
2023-01-11T23:02:35.169Z,9.10
2023-01-11T23:05:09.083Z,9.08
2023-01-11T23:07:39.539Z,9.03
2023-01-11T23:10:12.216Z,9.03
2023-01-11T23:12:55.088Z,8.82
2023-01-11T23:15:25.556Z,9.02
2023-01-11T23:17:55.975Z,9.03
2023-01-11T23:20:29.068Z,9.02
2023-01-11T23:22:59.883Z,9.01
2023-01-11T23:25:30.430Z,8.99
2023-01-11T23:28:01.890Z,9.00
2023-01-11T23:30:32.755Z,8.96
2023-01-11T23:33:05.468Z,8.95
2023-01-11T23:35:39.337Z,8.96
2023-01-11T23:38:10.493Z,8.81
2023-01-11T23:41:01.537Z,8.90
2023-01-11T23:43:30.960Z,8.83
2023-01-11T23:46:27.134Z,8.77
2023-01-11T23:48:59.028Z,8.70
2023-01-11T23:51:32.150Z,8.63
2023-01-11T23:54:04.371Z,8.58
2023-01-11T23:56:36.198Z,8.55
2023-01-11T23:59:07.918Z,8.48
